Time;durP1;ratioP1;P1;durP2;ratioP2;P2;SDS_P1;SDS_P2;PMS_P1;PMS_P2;Temp;Humidity;BMP_temperature;BMP_pressure;BME280_temperature;BME280_humidity;BME280_pressure;Samples;Min_cycle;Max_cycle;Signal;HPM_P1;HPM_P2
2023/03/08 00:01:17;;;;;;;38.22;19.48;;;;;;;-1.03;100.00;99984.13;5035877;28;20108;-70
2023/03/08 00:03:45;;;;;;;34.40;15.38;;;;;;;-1.04;100.00;99980.66;5039733;28;20132;-71
2023/03/08 00:06:14;;;;;;;41.15;19.83;;;;;;;-1.07;100.00;99977.19;5037030;28;20588;-71
2023/03/08 00:08:42;;;;;;;30.08;15.23;;;;;;;-1.08;100.00;99978.03;5043431;28;20038;-71
2023/03/08 00:11:11;;;;;;;34.33;15.98;;;;;;;-1.07;100.00;99978.06;5034872;28;20069;-71
2023/03/08 00:13:40;;;;;;;32.08;14.95;;;;;;;-1.09;100.00;99984.94;5040514;28;20060;-71
2023/03/08 00:16:11;;;;;;;36.70;15.90;;;;;;;-1.14;100.00;99979.75;5040673;28;20041;-71
2023/03/08 00:18:39;;;;;;;33.88;15.10;;;;;;;-1.19;100.00;99978.88;5044070;28;20096;-71
2023/03/08 00:21:13;;;;;;;30.02;14.40;;;;;;;-1.25;100.00;99986.63;5038291;28;20050;-72
2023/03/08 00:23:42;;;;;;;52.30;21.85;;;;;;;-1.30;100.00;99991.75;5042487;28;20064;-71
2023/03/08 00:26:11;;;;;;;33.90;15.20;;;;;;;-1.36;100.00;99986.53;5056680;28;20038;-71
2023/03/08 00:28:39;;;;;;;56.30;23.33;;;;;;;-1.40;100.00;99982.22;5032619;28;20065;-71
2023/03/08 00:31:11;;;;;;;53.55;22.30;;;;;;;-1.44;100.00;99978.78;5036340;28;20052;-71
2023/03/08 00:33:39;;;;;;;36.55;16.10;;;;;;;-1.48;100.00;99981.34;5047408;28;20041;-72
2023/03/08 00:36:18;;;;;;;59.45;23.90;;;;;;;-1.50;100.00;99993.38;5040508;28;20038;-72
2023/03/08 00:38:46;;;;;;;78.30;26.17;;;;;;;-1.55;100.00;99980.44;5043830;28;20041;-70
2023/03/08 00:41:14;;;;;;;67.95;25.55;;;;;;;-1.58;100.00;99973.50;5024201;28;20034;-70
2023/03/08 00:43:42;;;;;;;72.28;26.38;;;;;;;-1.55;100.00;99975.25;5050131;28;20048;-70
2023/03/08 00:46:10;;;;;;;46.72;18.00;;;;;;;-1.51;100.00;99978.72;5041477;28;20065;-72
2023/03/08 00:48:37;;;;;;;36.60;15.35;;;;;;;-1.50;100.00;99970.97;5046341;28;20065;-72
2023/03/08 00:51:04;;;;;;;36.35;15.68;;;;;;;-1.49;100.00;99971.84;5039130;28;20033;-72
2023/03/08 00:53:31;;;;;;;42.22;16.60;;;;;;;-1.51;100.00;99976.13;5034792;28;20042;-70
2023/03/08 00:55:59;;;;;;;41.53;16.55;;;;;;;-1.52;100.00;99970.09;5042329;28;20144;-70
2023/03/08 00:58:30;;;;;;;42.22;17.73;;;;;;;-1.53;100.00;99967.50;5035865;28;20038;-71
2023/03/08 01:00:58;;;;;;;54.63;24.42;;;;;;;-1.52;100.00;99967.50;5035825;28;20038;-71
2023/03/08 01:03:26;;;;;;;44.65;17.13;;;;;;;-1.48;100.00;99973.59;5046545;28;20041;-71
2023/03/08 01:05:57;;;;;;;36.50;16.25;;;;;;;-1.43;100.00;99971.88;5045173;28;20045;-71
2023/03/08 01:08:25;;;;;;;43.25;17.42;;;;;;;-1.37;100.00;99961.53;5044549;28;20029;-71
2023/03/08 01:10:57;;;;;;;49.80;21.08;;;;;;;-1.30;100.00;99954.69;5063157;28;20509;-71
2023/03/08 01:13:32;;;;;;;70.28;28.17;;;;;;;-1.24;100.00;99957.31;5046589;28;20045;-71
2023/03/08 01:16:00;;;;;;;74.53;29.20;;;;;;;-1.20;100.00;99948.69;5034943;28;20041;-71
2023/03/08 01:18:27;;;;;;;67.10;22.73;;;;;;;-1.18;100.00;99944.38;5027614;28;20916;-72
2023/03/08 01:21:02;;;;;;;51.63;20.80;;;;;;;-1.17;100.00;99943.53;5034606;28;20093;-71
2023/03/08 01:23:31;;;;;;;56.08;21.98;;;;;;;-1.18;100.00;99946.97;5034532;28;20045;-71
2023/03/08 01:26:03;;;;;;;53.97;22.60;;;;;;;-1.17;100.00;99950.44;5026816;28;20038;-71
2023/03/08 01:28:31;;;;;;;59.67;21.73;;;;;;;-1.19;100.00;99941.81;5036276;28;20042;-71
2023/03/08 01:31:29;;;;;;;50.85;22.13;;;;;;;-1.19;100.00;99934.88;5041171;28;20061;-72
2023/03/08 01:34:00;;;;;;;79.00;31.35;;;;;;;-1.19;100.00;99934.88;5044943;28;20589;-72
2023/03/08 01:36:27;;;;;;;80.35;30.83;;;;;;;-1.19;100.00;99928.88;5043984;28;20124;-72
2023/03/08 01:38:55;;;;;;;57.47;22.65;;;;;;;-1.20;100.00;99915.06;5041473;28;20069;-72
2023/03/08 01:41:31;;;;;;;58.83;22.98;;;;;;;-1.21;100.00;99913.31;5027287;28;20125;-71
2023/03/08 01:43:59;;;;;;;45.83;20.38;;;;;;;-1.21;100.00;99910.75;5031415;28;20747;-71
2023/03/08 01:46:35;;;;;;;74.65;30.77;;;;;;;-1.19;100.00;99908.19;5039519;28;20129;-71
2023/03/08 01:49:32;;;;;;;82.57;30.98;;;;;;;-1.20;100.00;99907.28;5039923;28;20422;-71
2023/03/08 01:52:13;;;;;;;51.15;20.77;;;;;;;-1.20;100.00;99898.69;5041511;28;20038;-70
2023/03/08 01:54:47;;;;;;;57.38;20.20;;;;;;;-1.21;100.00;99891.78;5028142;28;20164;-70
2023/03/08 01:57:44;;;;;;;51.75;20.38;;;;;;;-1.22;100.00;99890.91;5042556;28;20434;-70
2023/03/08 02:00:23;;;;;;;53.50;20.65;;;;;;;-1.20;100.00;99885.75;5035521;28;20038;-70
2023/03/08 02:02:59;;;;;;;86.50;33.78;;;;;;;-1.19;100.00;99882.31;5025729;28;20038;-70
2023/03/08 02:05:29;;;;;;;81.10;31.58;;;;;;;-1.18;100.00;99874.53;5029028;28;20057;-73
2023/03/08 02:08:04;;;;;;;56.83;22.25;;;;;;;-1.18;100.00;99866.78;5041518;28;20065;-74
2023/03/08 02:10:37;;;;;;;109.68;35.33;;;;;;;-1.15;100.00;99876.25;5045003;28;20080;-73
2023/03/08 02:13:07;;;;;;;61.20;22.52;;;;;;;-1.14;100.00;99867.66;5044014;28;20537;-70
2023/03/08 02:15:38;;;;;;;56.22;21.67;;;;;;;-1.16;100.00;99866.78;5027630;28;20041;-70
2023/03/08 02:18:05;;;;;;;65.22;30.55;;;;;;;-1.13;100.00;99871.97;5037874;28;20034;-70
2023/03/08 02:20:39;;;;;;;60.00;23.25;;;;;;;-1.11;100.00;99868.50;5036708;28;20120;-72
2023/03/08 02:23:18;;;;;;;59.63;22.33;;;;;;;-1.07;100.00;99869.41;5034685;28;20758;-72
2023/03/08 02:26:00;;;;;;;54.58;23.17;;;;;;;-1.01;100.00;99868.53;5025762;28;20042;-70
2023/03/08 02:28:31;;;;;;;82.45;32.17;;;;;;;-0.96;100.00;99861.66;5020420;28;20088;-70
2023/03/08 02:30:58;;;;;;;62.10;24.42;;;;;;;-0.94;100.00;99853.00;5032639;28;20564;-70
2023/03/08 02:33:25;;;;;;;62.50;24.35;;;;;;;-0.93;100.00;99848.72;5038675;28;20048;-71
2023/03/08 02:35:52;;;;;;;61.45;23.55;;;;;;;-0.92;100.00;99845.28;5025508;28;20042;-71
2023/03/08 02:38:21;;;;;;;84.95;32.50;;;;;;;-0.91;100.00;99841.78;5028397;28;20187;-71
2023/03/08 02:40:52;;;;;;;93.13;33.60;;;;;;;-0.88;100.00;99848.72;5026110;28;20050;-70
2023/03/08 02:43:19;;;;;;;122.70;36.25;;;;;;;-0.89;100.00;99841.81;5037786;28;20046;-71
2023/03/08 02:45:47;;;;;;;61.58;25.92;;;;;;;-0.94;100.00;99840.06;5037995;28;20041;-71
2023/03/08 02:48:14;;;;;;;109.97;34.35;;;;;;;-0.95;100.00;99837.50;5041466;28;20038;-70
2023/03/08 02:50:41;;;;;;;55.90;23.05;;;;;;;-0.98;100.00;99838.38;5039880;28;20398;-70
2023/03/08 02:53:08;;;;;;;60.90;25.13;;;;;;;-0.95;100.00;99832.31;5033037;28;20121;-69
2023/03/08 02:55:36;;;;;;;55.22;22.70;;;;;;;-0.92;100.00;99834.03;5035472;28;20049;-70
2023/03/08 02:58:09;;;;;;;87.65;32.78;;;;;;;-0.88;100.00;99830.59;5043328;28;20046;-71
2023/03/08 03:00:37;;;;;;;59.38;24.90;;;;;;;-0.84;100.00;99815.09;5029567;28;20045;-71
2023/03/08 03:03:04;;;;;;;84.75;31.45;;;;;;;-0.79;100.00;99815.06;5035511;28;20041;-71
2023/03/08 03:05:31;;;;;;;82.47;31.48;;;;;;;-0.75;100.00;99821.97;5057059;28;20723;-71
2023/03/08 03:08:01;;;;;;;104.13;35.60;;;;;;;-0.71;100.00;99815.09;5031144;28;20041;-72
2023/03/08 03:10:29;;;;;;;86.80;33.47;;;;;;;-0.68;100.00;99822.81;5047970;28;20045;-71
2023/03/08 03:12:56;;;;;;;61.67;25.63;;;;;;;-0.65;100.00;99817.66;5031745;28;20649;-71
2023/03/08 03:15:27;;;;;;;68.05;24.92;;;;;;;-0.61;100.00;99815.91;5046213;28;20041;-71
2023/03/08 03:17:57;;;;;;;107.38;35.50;;;;;;;-0.58;100.00;99816.78;5029975;28;20062;-71
2023/03/08 03:20:25;;;;;;;70.97;26.85;;;;;;;-0.54;100.00;99825.41;5052888;28;20037;-71
2023/03/08 03:22:52;;;;;;;104.80;35.38;;;;;;;-0.52;100.00;99819.38;5032361;28;20049;-71
2023/03/08 03:25:24;;;;;;;79.70;32.50;;;;;;;-0.47;100.00;99811.59;5038987;28;20076;-71
2023/03/08 03:27:54;;;;;;;107.50;35.97;;;;;;;-0.43;100.00;99802.94;5046624;28;20509;-70
2023/03/08 03:30:22;;;;;;;106.72;36.42;;;;;;;-0.39;100.00;99803.78;5037522;28;20104;-71
2023/03/08 03:32:50;;;;;;;80.05;28.00;;;;;;;-0.38;100.00;99801.22;5051493;28;20041;-71
2023/03/08 03:35:22;;;;;;;78.15;25.23;;;;;;;-0.35;100.00;99797.75;5045152;28;20030;-71
2023/03/08 03:37:50;;;;;;;119.35;37.35;;;;;;;-0.30;100.00;99793.41;5043782;28;20049;-72
2023/03/08 03:40:17;;;;;;;91.07;31.92;;;;;;;-0.28;100.00;99794.28;5045117;28;20426;-72
2023/03/08 03:42:48;;;;;;;115.15;37.42;;;;;;;-0.26;100.00;99791.69;5030852;28;20125;-72
2023/03/08 03:45:15;;;;;;;122.80;38.30;;;;;;;-0.26;100.00;99783.94;5064084;28;20052;-72
2023/03/08 03:47:43;;;;;;;76.72;33.03;;;;;;;-0.27;100.00;99784.78;5043822;28;20093;-71
2023/03/08 03:50:10;;;;;;;94.70;35.17;;;;;;;-0.25;100.00;99775.25;5044485;28;20866;-72
2023/03/08 03:52:46;;;;;;;81.15;33.15;;;;;;;-0.27;100.00;99758.88;5036427;28;20114;-73
2023/03/08 03:55:13;;;;;;;88.80;35.00;;;;;;;-0.29;100.00;99756.28;5045169;28;20045;-71
2023/03/08 03:57:41;;;;;;;89.93;34.63;;;;;;;-0.32;100.00;99754.56;5045228;28;20104;-71
2023/03/08 04:00:12;;;;;;;68.18;28.63;;;;;;;-0.34;100.00;99751.13;5045011;28;20038;-71
2023/03/08 04:02:39;;;;;;;58.78;25.02;;;;;;;-0.35;100.00;99751.13;5040013;28;20048;-71
2023/03/08 04:05:11;;;;;;;95.95;34.60;;;;;;;-0.35;100.00;99745.94;5048089;28;20045;-71
2023/03/08 04:07:38;;;;;;;73.55;28.38;;;;;;;-0.35;100.00;99746.81;5043710;28;20064;-70
2023/03/08 04:10:06;;;;;;;98.43;34.83;;;;;;;-0.36;100.00;99752.00;5046237;28;20432;-71
2023/03/08 04:12:35;;;;;;;87.63;34.10;;;;;;;-0.37;100.00;99748.56;5056494;28;20050;-71
2023/03/08 04:15:04;;;;;;;96.25;35.55;;;;;;;-0.36;100.00;99742.53;5044331;28;20038;-70
2023/03/08 04:17:32;;;;;;;87.85;35.50;;;;;;;-0.36;100.00;99739.06;5040951;28;21431;-71
2023/03/08 04:20:00;;;;;;;88.63;35.45;;;;;;;-0.36;100.00;99733.88;5058513;28;20045;-71
2023/03/08 04:22:31;;;;;;;95.88;40.42;;;;;;;-0.37;100.00;99738.19;5021084;28;20045;-71
2023/03/08 04:25:06;;;;;;;65.95;26.55;;;;;;;-0.37;100.00;99727.84;5044093;28;20133;-70
2023/03/08 04:27:46;;;;;;;116.05;39.85;;;;;;;-0.38;100.00;99718.34;5030603;28;20037;-71
2023/03/08 04:30:13;;;;;;;86.28;35.88;;;;;;;-0.37;100.00;99714.00;5025942;28;20081;-70
2023/03/08 04:32:40;;;;;;;94.30;38.58;;;;;;;-0.37;100.00;99704.53;5034757;28;20403;-70
2023/03/08 04:35:08;;;;;;;100.03;37.95;;;;;;;-0.39;100.00;99705.38;5041358;28;20443;-71
2023/03/08 04:37:39;;;;;;;121.03;40.05;;;;;;;-0.38;100.00;99707.09;5036238;28;20045;-71
2023/03/08 04:40:12;;;;;;;114.88;41.50;;;;;;;-0.36;100.00;99702.78;5044057;28;20034;-71
2023/03/08 04:42:46;;;;;;;90.00;32.35;;;;;;;-0.36;100.00;99710.56;5042814;28;20481;-71
2023/03/08 04:45:17;;;;;;;106.97;40.75;;;;;;;-0.36;100.00;99703.66;5042800;28;20652;-71
2023/03/08 04:47:44;;;;;;;97.55;38.22;;;;;;;-0.37;100.00;99694.16;5034962;28;20787;-72
2023/03/08 04:50:13;;;;;;;115.35;41.00;;;;;;;-0.37;100.00;99691.59;5043178;28;20044;-72
2023/03/08 04:52:40;;;;;;;95.93;39.72;;;;;;;-0.36;100.00;99693.31;5040323;28;20034;-70
2023/03/08 04:55:07;;;;;;;94.75;38.92;;;;;;;-0.36;100.00;99682.06;5043200;28;20049;-71
2023/03/08 04:57:37;;;;;;;120.25;42.72;;;;;;;-0.36;100.00;99679.47;5033356;28;20037;-71
2023/03/08 05:00:04;;;;;;;106.95;40.85;;;;;;;-0.33;100.00;99682.06;5039875;28;20081;-70
2023/03/08 05:02:36;;;;;;;123.63;43.70;;;;;;;-0.33;100.00;99676.88;5042596;28;20538;-71
2023/03/08 05:05:06;;;;;;;110.85;40.47;;;;;;;-0.35;100.00;99666.50;5011922;28;20704;-70
2023/03/08 05:07:34;;;;;;;122.15;41.78;;;;;;;-0.35;100.00;99666.50;5045196;28;20104;-71
2023/03/08 05:10:01;;;;;;;108.90;41.20;;;;;;;-0.32;100.00;99656.16;5042899;28;20052;-70
2023/03/08 05:12:29;;;;;;;140.18;43.00;;;;;;;-0.33;100.00;99656.16;5032944;28;20038;-70
2023/03/08 05:14:58;;;;;;;90.40;38.10;;;;;;;-0.30;100.00;99648.34;5036028;28;20575;-71
2023/03/08 05:17:26;;;;;;;156.20;46.95;;;;;;;-0.28;100.00;99648.38;5051326;28;20048;-71
2023/03/08 05:19:54;;;;;;;136.98;45.60;;;;;;;-0.25;100.00;99633.66;5048348;28;20651;-71
2023/03/08 05:22:28;;;;;;;132.48;43.03;;;;;;;-0.26;100.00;99631.09;5024916;28;20038;-71
2023/03/08 05:24:57;;;;;;;154.10;45.75;;;;;;;-0.27;100.00;99632.81;5040427;28;20060;-71
2023/03/08 05:27:25;;;;;;;96.80;32.05;;;;;;;-0.26;100.00;99631.94;5043168;28;20119;-71
2023/03/08 05:29:52;;;;;;;136.40;45.97;;;;;;;-0.22;100.00;99622.41;5037507;28;20038;-71
2023/03/08 05:32:19;;;;;;;179.02;44.45;;;;;;;-0.21;100.00;99618.97;5051102;28;20064;-71
2023/03/08 05:34:47;;;;;;;174.00;47.67;;;;;;;-0.19;100.00;99620.66;5039587;28;20050;-72
2023/03/08 05:37:24;;;;;;;139.70;43.55;;;;;;;-0.19;100.00;99609.47;5036609;28;20107;-70
2023/03/08 05:39:54;;;;;;;96.70;31.85;;;;;;;-0.05;100.00;99607.63;5041649;28;20713;-70
2023/03/08 05:42:22;;;;;;;151.15;49.15;;;;;;;0.07;100.00;99592.88;5039651;28;20038;-71
2023/03/08 05:44:49;;;;;;;95.80;41.17;;;;;;;0.14;100.00;99589.38;5044219;28;20052;-70
2023/03/08 05:47:20;;;;;;;172.25;49.53;;;;;;;0.20;100.00;99591.91;5043444;28;20531;-70
2023/03/08 05:49:48;;;;;;;183.57;52.90;;;;;;;0.22;100.00;99578.94;5043003;28;20120;-69
2023/03/08 05:52:16;;;;;;;150.73;47.70;;;;;;;0.24;100.00;99574.59;5046062;28;20038;-68
2023/03/08 05:54:44;;;;;;;72.72;35.40;;;;;;;0.29;100.00;99576.28;5024940;28;20042;-68
2023/03/08 05:57:15;;;;;;;107.28;33.63;;;;;;;0.45;100.00;99573.56;5039018;28;20076;-68
2023/03/08 05:59:43;;;;;;;117.88;41.28;;;;;;;0.61;100.00;99561.31;5028870;28;20052;-68
2023/03/08 06:02:14;;;;;;;133.57;41.72;;;;;;;0.64;100.00;99563.84;5036322;28;20117;-68
2023/03/08 06:04:45;;;;;;;77.05;32.83;;;;;;;0.58;100.00;99556.16;5025723;28;20491;-68
2023/03/08 06:07:16;;;;;;;79.97;33.28;;;;;;;0.63;100.00;99546.56;5042548;28;20026;-69
2023/03/08 06:09:50;;;;;;;66.03;29.35;;;;;;;0.69;100.00;99546.53;5038297;28;20113;-69
2023/03/08 06:12:17;;;;;;;99.72;36.88;;;;;;;0.74;100.00;99538.69;5039942;28;20041;-69
2023/03/08 06:14:49;;;;;;;124.85;40.47;;;;;;;0.82;100.00;99539.47;5040281;28;20136;-69
2023/03/08 06:17:18;;;;;;;108.35;35.35;;;;;;;0.79;100.00;99538.66;5062253;28;20307;-69
2023/03/08 06:19:48;;;;;;;117.65;39.30;;;;;;;0.70;100.00;99527.50;5044866;28;20229;-70
2023/03/08 06:22:16;;;;;;;102.18;38.13;;;;;;;0.66;100.00;99528.38;5045219;28;20544;-70
2023/03/08 06:24:48;;;;;;;91.20;36.63;;;;;;;0.64;100.00;99529.28;5061903;28;20068;-70
2023/03/08 06:27:19;;;;;;;;;;;;;;;0.62;100.00;99518.91;5039940;28;20041;-69
2023/03/08 06:29:49;;;;;;;82.45;31.65;;;;;;;0.58;100.00;99517.25;5042617;28;20016;-71
2023/03/08 06:32:17;;;;;;;75.65;29.70;;;;;;;0.51;100.00;99516.44;5033940;28;20051;-70
2023/03/08 06:34:45;;;;;;;124.13;40.65;;;;;;;0.43;100.00;99526.03;5043051;28;20125;-70
2023/03/08 06:37:13;;;;;;;91.03;36.70;;;;;;;0.38;100.00;99526.09;5046384;28;20037;-70
2023/03/08 06:39:41;;;;;;;97.43;37.13;;;;;;;0.35;100.00;99525.25;5048008;28;20041;-70
2023/03/08 06:42:08;;;;;;;98.20;36.28;;;;;;;0.34;100.00;99518.34;5049190;28;20460;-70
2023/03/08 06:44:35;;;;;;;127.30;39.65;;;;;;;0.33;100.00;99521.81;5050225;28;20117;-70
2023/03/08 06:47:05;;;;;;;123.18;38.83;;;;;;;0.32;100.00;99523.53;5049307;28;20414;-70
2023/03/08 06:49:33;;;;;;;144.02;41.08;;;;;;;0.33;100.00;99519.22;5051499;28;20128;-70
2023/03/08 06:52:00;;;;;;;127.57;38.58;;;;;;;0.33;100.00;99517.47;5047117;28;20621;-70
2023/03/08 06:54:28;;;;;;;117.00;37.63;;;;;;;0.35;100.00;99514.88;5049891;28;20042;-70
2023/03/08 06:56:55;;;;;;;103.97;36.35;;;;;;;0.33;100.00;99504.50;5050342;28;20041;-70
2023/03/08 06:59:22;;;;;;;91.68;33.80;;;;;;;0.34;100.00;99513.16;5047770;28;20042;-70
2023/03/08 07:01:49;;;;;;;95.47;32.95;;;;;;;0.32;100.00;99517.50;5049760;28;20079;-70
2023/03/08 07:04:17;;;;;;;82.90;33.47;;;;;;;0.35;100.00;99515.75;5054435;28;20049;-70
2023/03/08 07:06:44;;;;;;;99.20;33.67;;;;;;;0.34;100.00;99508.81;5054212;28;20100;-70
2023/03/08 07:09:12;;;;;;;66.22;26.80;;;;;;;0.34;100.00;99503.63;5052744;28;20541;-70
2023/03/08 07:11:39;;;;;;;86.53;31.38;;;;;;;0.35;100.00;99504.53;5043699;28;20156;-70
2023/03/08 07:14:06;;;;;;;70.90;29.65;;;;;;;0.36;100.00;99501.91;5052425;28;20106;-71
2023/03/08 07:16:33;;;;;;;84.45;30.67;;;;;;;0.35;100.00;99507.97;5050913;28;20060;-71
2023/03/08 07:19:02;;;;;;;77.18;29.60;;;;;;;0.34;100.00;99502.81;5052837;28;20533;-70
2023/03/08 07:21:29;;;;;;;76.85;29.52;;;;;;;0.34;100.00;99515.75;5052248;28;20049;-71
2023/03/08 07:23:56;;;;;;;79.32;30.10;;;;;;;0.30;100.00;99510.59;5051668;28;20858;-71
2023/03/08 07:26:23;;;;;;;63.13;27.17;;;;;;;0.34;100.00;99514.00;5053206;28;20041;-69
2023/03/08 07:28:50;;;;;;;71.07;28.88;;;;;;;0.34;100.00;99513.16;5052535;28;20054;-69
2023/03/08 07:31:17;;;;;;;79.13;28.50;;;;;;;0.33;100.00;99511.44;5055982;28;20042;-70
2023/03/08 07:33:45;;;;;;;60.47;26.35;;;;;;;0.34;100.00;99507.97;5051131;28;20575;-70
2023/03/08 07:36:12;;;;;;;63.90;26.63;;;;;;;0.33;100.00;99507.09;5052902;28;20120;-69
2023/03/08 07:38:39;;;;;;;48.40;21.50;;;;;;;0.31;100.00;99503.66;5045261;28;20033;-71
2023/03/08 07:41:06;;;;;;;71.55;26.23;;;;;;;0.30;100.00;99492.44;5050986;28;20038;-71
2023/03/08 07:43:33;;;;;;;64.97;26.15;;;;;;;0.30;100.00;99494.19;5050113;28;20529;-71
2023/03/08 07:46:20;;;;;;;54.03;24.67;;;;;;;0.30;100.00;99487.25;5040165;28;20057;-72
2023/03/08 07:48:47;;;;;;;59.15;23.52;;;;;;;0.28;100.00;99485.56;5049415;28;20925;-70
2023/03/08 07:51:14;;;;;;;56.45;23.83;;;;;;;0.30;100.00;99478.63;5044295;28;20050;-70
2023/03/08 07:53:41;;;;;;;51.78;23.65;;;;;;;0.32;100.00;99479.47;5041458;28;20039;-70
2023/03/08 07:56:08;;;;;;;53.85;22.73;;;;;;;0.32;100.00;99474.28;5050399;28;20503;-69
2023/03/08 07:58:35;;;;;;;44.65;21.60;;;;;;;0.33;100.00;99467.38;5045580;28;20045;-70
2023/03/08 08:01:13;;;;;;;44.70;21.17;;;;;;;0.35;100.00;99466.47;5048661;28;20080;-70
2023/03/08 08:03:42;;;;;;;46.25;21.15;;;;;;;0.34;100.00;99467.34;5031105;28;20627;-70
2023/03/08 08:06:09;;;;;;;53.03;21.75;;;;;;;0.37;100.00;99463.84;5060633;28;20115;-70
2023/03/08 08:08:36;;;;;;;40.67;21.05;;;;;;;0.42;100.00;99470.72;5029461;28;20137;-70
2023/03/08 08:11:14;;;;;;;53.55;21.00;;;;;;;0.45;100.00;99464.66;5035955;28;20049;-70
2023/03/08 08:13:41;;;;;;;45.08;19.67;;;;;;;0.51;100.00;99463.72;5046443;28;20587;-70
2023/03/08 08:16:08;;;;;;;42.60;19.98;;;;;;;0.50;100.00;99460.25;5047833;28;20042;-70
2023/03/08 08:18:35;;;;;;;40.00;19.70;;;;;;;0.48;100.00;99461.16;5047676;28;20041;-70
2023/03/08 08:21:12;;;;;;;40.45;19.35;;;;;;;0.46;100.00;99458.56;5047184;28;20049;-70
2023/03/08 08:23:41;;;;;;;43.35;20.83;;;;;;;0.41;100.00;99447.41;5048414;28;20629;-70
2023/03/08 08:26:18;;;;;;;49.25;21.63;;;;;;;0.40;100.00;99450.88;5041832;28;20045;-70
2023/03/08 08:28:49;;;;;;;44.92;21.95;;;;;;;0.42;100.00;99449.97;5029004;28;20117;-71
2023/03/08 08:31:21;;;;;;;33.22;16.98;;;;;;;0.42;100.00;99449.97;5028359;28;20639;-71
2023/03/08 08:33:49;;;;;;;47.40;22.88;;;;;;;0.41;100.00;99456.03;5026393;28;20042;-70
2023/03/08 08:36:18;;;;;;;43.45;19.33;;;;;;;0.40;100.00;99446.56;5027172;28;20045;-70
2023/03/08 08:38:46;;;;;;;38.10;19.20;;;;;;;0.40;100.00;99443.09;5028512;28;20044;-71
2023/03/08 08:41:16;;;;;;;41.20;18.73;;;;;;;0.36;100.00;99441.38;5042300;28;20053;-71
2023/03/08 08:43:45;;;;;;;42.10;19.50;;;;;;;0.36;100.00;99418.94;5047665;28;20041;-71
2023/03/08 08:46:14;;;;;;;37.40;18.25;;;;;;;0.34;100.00;99420.69;5047669;28;20049;-71
2023/03/08 08:48:42;;;;;;;36.10;18.10;;;;;;;0.37;100.00;99424.97;5041102;28;20030;-70
2023/03/08 08:51:12;;;;;;;37.22;17.27;;;;;;;0.32;100.00;99414.66;5034754;28;20052;-71
2023/03/08 08:53:39;;;;;;;38.90;17.80;;;;;;;0.31;100.00;99410.34;5044572;28;20045;-71
2023/03/08 08:56:23;;;;;;;35.85;17.25;;;;;;;0.30;100.00;99414.66;5046723;28;20104;-71
2023/03/08 08:58:56;;;;;;;39.58;16.95;;;;;;;0.26;100.00;99412.97;5039457;28;20042;-71
2023/03/08 09:01:28;;;;;;;37.65;17.48;;;;;;;0.28;100.00;99400.84;5044883;28;20782;-71
2023/03/08 09:03:55;;;;;;;37.80;16.80;;;;;;;0.28;100.00;99398.28;5031440;28;20045;-70
2023/03/08 09:06:24;;;;;;;36.55;17.50;;;;;;;0.32;100.00;99400.84;5035106;28;20049;-71
2023/03/08 09:08:55;;;;;;;34.90;16.98;;;;;;;0.33;100.00;99393.03;5038509;28;20069;-71
2023/03/08 09:11:25;;;;;;;36.17;16.80;;;;;;;0.40;100.00;99399.00;5033119;28;20089;-71
2023/03/08 09:13:53;;;;;;;39.55;17.52;;;;;;;0.43;100.00;99398.97;5036299;28;20033;-70
2023/03/08 09:16:27;;;;;;;37.25;17.88;;;;;;;0.52;100.00;99395.41;5035691;28;20561;-71
2023/03/08 09:18:56;;;;;;;37.55;17.77;;;;;;;0.59;100.00;99395.31;5039051;28;20077;-71
2023/03/08 09:21:25;;;;;;;34.53;15.63;;;;;;;0.59;100.00;99405.69;5040365;28;20515;-71
2023/03/08 09:23:53;;;;;;;42.60;17.25;;;;;;;0.63;100.00;99396.13;5045333;28;20553;-70
2023/03/08 09:26:20;;;;;;;34.85;15.80;;;;;;;0.65;100.00;99394.38;5045956;28;20041;-70
2023/03/08 09:28:47;;;;;;;44.30;18.58;;;;;;;0.67;100.00;99389.16;5043404;28;20049;-71
2023/03/08 09:31:16;;;;;;;47.85;19.98;;;;;;;0.69;100.00;99390.00;5046127;28;20056;-71
2023/03/08 09:33:50;;;;;;;48.83;21.30;;;;;;;0.68;100.00;99386.56;5049591;28;20030;-71
2023/03/08 09:36:19;;;;;;;50.30;23.10;;;;;;;0.72;100.00;99380.44;5059377;28;20041;-71
2023/03/08 09:38:51;;;;;;;47.05;21.73;;;;;;;0.75;100.00;99374.38;5046415;28;20041;-70
2023/03/08 09:41:20;;;;;;;46.92;20.85;;;;;;;0.77;100.00;99363.09;5045539;28;20072;-71
2023/03/08 09:44:33;;;;;;;44.40;21.08;;;;;;;0.85;100.00;99349.13;5046996;28;20052;-71
2023/03/08 09:47:13;;;;;;;45.95;21.45;;;;;;;0.87;100.00;99350.81;5045861;28;20045;-72
2023/03/08 09:49:46;;;;;;;34.95;18.50;;;;;;;0.89;100.00;99354.25;5051213;28;20041;-70
2023/03/08 09:52:23;;;;;;;29.33;16.45;;;;;;;0.89;100.00;99343.88;5045147;28;20048;-70
2023/03/08 09:54:52;;;;;;;23.67;13.60;;;;;;;0.90;100.00;99329.19;5046907;28;20053;-71
2023/03/08 09:57:39;;;;;;;22.45;13.63;;;;;;;0.93;100.00;99329.13;5043496;28;20040;-71
2023/03/08 10:00:20;;;;;;;21.20;10.77;;;;;;;1.02;99.69;99331.56;5043584;28;20034;-71
2023/03/08 10:03:09;;;;;;;18.75;11.40;;;;;;;1.13;99.92;99328.81;5036000;28;20042;-71
2023/03/08 10:05:53;;;;;;;22.08;13.32;;;;;;;1.31;99.42;99317.28;5044467;28;20935;-71
2023/03/08 10:08:32;;;;;;;19.33;11.67;;;;;;;1.38;98.87;99312.81;5042161;28;20049;-72
2023/03/08 10:11:06;;;;;;;22.23;12.75;;;;;;;1.51;98.33;99308.31;5056528;28;20247;-69
2023/03/08 10:13:37;;;;;;;18.33;11.03;;;;;;;1.57;97.58;99309.94;5061072;28;20033;-70
2023/03/08 10:16:33;;;;;;;16.48;10.63;;;;;;;1.66;96.46;99312.38;5045343;28;20044;-71
2023/03/08 10:19:21;;;;;;;16.20;10.90;;;;;;;1.76;96.70;99323.44;5042323;28;20124;-70
2023/03/08 10:21:51;;;;;;;14.30;9.73;;;;;;;1.79;96.10;99298.25;5045702;28;20100;-70
2023/03/08 10:24:44;;;;;;;14.93;9.60;;;;;;;1.84;96.25;99298.16;5042345;28;20072;-70
2023/03/08 10:27:32;;;;;;;15.43;9.63;;;;;;;1.96;95.84;99291.88;5024818;28;20045;-70
2023/03/08 10:30:10;;;;;;;43.60;27.70;;;;;;;2.07;95.53;99302.91;5025970;28;20049;-70
2023/03/08 10:32:46;;;;;;;13.05;9.30;;;;;;;2.14;94.00;99301.91;5026129;28;20042;-70
2023/03/08 10:35:15;;;;;;;19.95;9.50;;;;;;;2.15;94.02;99307.94;5046249;28;20991;-70
2023/03/08 10:37:50;;;;;;;14.20;8.45;;;;;;;2.23;94.75;99310.41;5041688;28;20036;-70
2023/03/08 10:40:20;;;;;;;12.70;8.73;;;;;;;2.42;94.30;99318.69;5027180;28;20485;-70
2023/03/08 10:42:59;;;;;;;14.00;8.55;;;;;;;2.41;92.60;99320.41;5050835;28;20137;-70
2023/03/08 10:45:28;;;;;;;14.98;9.07;;;;;;;2.36;92.86;99309.25;5041809;28;20069;-70
2023/03/08 10:48:01;;;;;;;11.73;7.97;;;;;;;2.33;92.51;99307.59;5024412;28;20468;-70
2023/03/08 10:50:36;;;;;;;12.75;8.32;;;;;;;2.27;92.65;99304.25;5042054;28;20050;-70
2023/03/08 10:53:17;;;;;;;13.23;8.65;;;;;;;2.27;92.78;99296.47;5039093;28;20084;-70
2023/03/08 10:55:51;;;;;;;14.85;9.90;;;;;;;2.31;93.00;99275.56;5043501;28;20060;-70
2023/03/08 10:58:33;;;;;;;16.48;11.25;;;;;;;2.39;92.99;99277.97;5060982;28;20037;-70
2023/03/08 11:01:21;;;;;;;13.95;10.85;;;;;;;2.41;91.60;99267.53;5046445;28;20585;-70
2023/03/08 11:04:02;;;;;;;14.50;11.00;;;;;;;2.24;91.70;99275.69;5054981;28;20140;-70
2023/03/08 11:06:30;;;;;;;15.05;11.38;;;;;;;2.19;92.42;99288.81;5048507;28;20119;-70
2023/03/08 11:09:02;;;;;;;14.25;11.23;;;;;;;2.16;92.83;99284.53;5066568;28;20759;-75
2023/03/08 11:11:40;;;;;;;14.90;11.23;;;;;;;2.12;92.61;99276.81;5039249;28;20502;-70
2023/03/08 11:14:10;;;;;;;13.05;9.85;;;;;;;2.08;93.10;99278.63;5043985;28;20048;-72
2023/03/08 11:17:04;;;;;;;14.63;11.27;;;;;;;2.03;94.03;99277.88;5041977;28;20524;-70
2023/03/08 11:19:58;;;;;;;12.48;9.10;;;;;;;2.04;92.80;99278.69;5040685;28;20069;-70
2023/03/08 11:23:05;;;;;;;10.23;8.30;;;;;;;2.03;92.02;99277.03;5031933;28;20454;-70
2023/03/08 11:25:44;;;;;;;9.85;7.78;;;;;;;1.99;92.36;99276.19;5040382;28;20096;-70
2023/03/08 11:28:55;;;;;;;11.68;7.72;;;;;;;1.97;92.88;99288.41;5037107;28;20034;-70
2023/03/08 11:31:46;;;;;;;9.63;7.65;;;;;;;1.94;92.84;99285.84;5048354;28;20049;-69
2023/03/08 11:34:29;;;;;;;9.63;6.72;;;;;;;1.92;91.15;99290.22;5056247;28;20041;-70